Flight Track Log - Related Links

Times and Time Zones

All times are in EDT time to prevent confusion due to time zone crossing. See the UAL906 flight status page for this flight to view local times or setup timezone preferences in your user account.

Time Position Orientation Groundspeed Altitude Reporting Facility
EDT Latitude Longitude Course Direction KTS MPH feet Rate Location/Type
Tue 07:09:00 AM 50.2299 8.1070 308° West  Level FlightAware Approximate
Tue 07:10:00 AM 50.2992 7.9516 308° West  Level FlightAware Approximate
Tue 07:11:00 AM 50.3736 7.8010 305° West  Level FlightAware Approximate
Tue 07:12:00 AM 50.4429 7.6442 305° West  Level FlightAware Approximate
Tue 07:13:00 AM 50.5120 7.4870 305° West  Level FlightAware Approximate
Tue 07:13:53 AM 50.3420 8.4770 306° West 366 421 11,700  Level FlightAware ADS-B
Tue 07:14:00 AM 50.5797 7.3282 303° West  Level FlightAware Approximate
Tue 07:15:00 AM 50.6459 7.1674 303° West  Level FlightAware Approximate
Tue 07:15:54 AM 50.4430 8.1940 299° West 383 441 15,600  Level FlightAware ADS-B
Tue 07:16:00 AM 50.7150 7.0097 306° West  Level FlightAware Approximate
Tue 07:16:29 AM 50.4760 8.1030 300° West 393 452 16,700  Level FlightAware ADS-B
Tue 07:16:53 AM 50.4980 8.0430 300° West 398 458 17,300 1,543 Climbing FlightAware ADS-B
Tue 07:17:39 AM 50.5390 7.9260 299° West 404 465 18,500 1,535 Climbing FlightAware ADS-B
Tue 07:18:19 AM 50.5750 7.8240 299° West 410 472 19,500 1,390 Climbing FlightAware ADS-B
Tue 07:19:01 AM 50.6150 7.7100 299° West 421 484 20,400 1,357 Climbing FlightAware ADS-B
Tue 07:19:43 AM 50.6550 7.5960 299° West 426 490 21,400 1,395 Climbing FlightAware ADS-B
Tue 07:20:27 AM 50.6950 7.4810 299° West 429 494 22,400 1,350 Climbing FlightAware ADS-B
Tue 07:21:03 AM 50.7310 7.3810 300° West 434 499 23,200 1,271 Climbing FlightAware ADS-B
Tue 07:22:25 AM 50.8550 7.1990 317° Northwest 447 514 24,900 1,218 Climbing FlightAware ADS-B
Tue 07:23:16 AM 50.9120 7.0610 303° West 449 517 25,900 1,187 Climbing FlightAware ADS-B
Tue 07:23:56 AM 50.9570 6.9490 303° West 454 522 26,700 1,143 Climbing FlightAware ADS-B
Tue 07:24:40 AM 51.0050 6.8250 302° West 457 526 27,500 1,071 Climbing FlightAware ADS-B
Tue 07:25:20 AM 51.0510 6.7090 302° West 463 533 28,200 1,026 Climbing FlightAware ADS-B
Tue 07:25:56 AM 51.0910 6.6050 302° West 467 537 28,800 900 Climbing FlightAware ADS-B
Tue 07:26:40 AM 51.1410 6.4770 302° West 473 544 29,400 789 Climbing FlightAware ADS-B
Tue 07:27:12 AM 51.1790 6.3800 302° West 477 549 29,800 815 Climbing FlightAware ADS-B
Tue 07:28:01 AM 51.2350 6.2350 302° West 482 555 30,500 828 Climbing FlightAware ADS-B
Tue 07:28:39 AM 51.2800 6.1180 302° West 486 559 31,000 1,071 Climbing FlightAware ADS-B
Tue 07:29:25 AM 51.3350 5.9780 302° West 481 554 32,000 982 Climbing FlightAware ADS-B
Tue 07:31:24 AM 51.4550 5.6790 303° West 477 549 33,700 764 Climbing FlightAware ADS-B
Tue 07:32:02 AM 51.5050 5.5500 302° West 477 549 34,000 176 Climbing FlightAware ADS-B
Tue 07:32:32 AM 51.5523 5.4188 302° West 482 555 33,900  Descending FlightAware UK
Tue 07:32:43 AM 51.5640 5.4000 302° West 476 548 34,000 109 Climbing FlightAware ADS-B
Tue 07:33:27 AM 51.6190 5.2590 302° West 476 548 34,000  Level FlightAware ADS-B
Tue 07:34:07 AM 51.6620 5.1470 302° West 475 547 34,000  Level FlightAware ADS-B
Tue 07:34:47 AM 51.7100 5.0240 302° West 475 547 34,000  Level FlightAware ADS-B
Tue 07:35:30 AM 51.7610 4.8890 301° West 475 547 34,000  Level FlightAware ADS-B
Tue 07:36:15 AM 51.8160 4.7600 305° West 480 552 34,000  Level FlightAware ADS-B
Tue 07:36:56 AM 51.8910 4.6680 323° Northwest 495 570 34,000  Level FlightAware ADS-B
Tue 07:37:26 AM 51.9520 4.6130 331° Northwest 495 570 34,000  Level FlightAware ADS-B
Tue 07:38:02 AM 52.0241 4.5498 331° Northwest 482 555 34,000  Level FlightAware UK
Tue 07:38:11 AM 52.0400 4.5360 331° Northwest 494 568 34,000  Level FlightAware ADS-B
Tue 07:38:49 AM 52.1211 4.4659 331° Northwest 484 557 34,000  Level FlightAware UK
Tue 07:38:53 AM 52.1250 4.4610 331° Northwest 493 567 34,000  Level FlightAware ADS-B
Tue 07:39:28 AM 52.1970 4.3970 331° Northwest 492 566 34,000  Level FlightAware ADS-B
Tue 07:40:12 AM 52.2850 4.3180 331° Northwest 492 566 34,000 -80 Level FlightAware ADS-B
Tue 07:40:43 AM 52.3484 4.2624 331° Northwest 480 552 33,900  Descending FlightAware UK
Tue 07:40:51 AM 52.3630 4.2480 331° Northwest 492 566 34,000 125 Climbing FlightAware ADS-B
Tue 07:41:31 AM 52.4410 4.1770 331° Northwest 491 565 34,000  Level FlightAware ADS-B
Tue 07:42:13 AM 52.5240 4.1010 331° Northwest 491 565 34,000  Level FlightAware ADS-B
Tue 07:42:19 AM 52.5393 4.0897 331° Northwest 482 555 34,000  Level FlightAware UK
Tue 07:42:57 AM 52.6120 4.0210 331° Northwest 491 565 34,000  Level FlightAware ADS-B
Tue 07:43:41 AM 52.6990 3.9420 331° Northwest 490 564 34,000  Level FlightAware ADS-B
Tue 07:44:21 AM 52.7780 3.8700 331° Northwest 489 563 34,000  Level FlightAware ADS-B
Tue 07:44:56 AM 52.8470 3.8050 330° Northwest 488 562 34,000  Level FlightAware ADS-B
Tue 07:45:40 AM 52.9310 3.7270 331° Northwest 487 560 34,000  Level FlightAware ADS-B
Tue 07:46:16 AM 53.0000 3.6630 331° Northwest 486 559 34,000  Level FlightAware ADS-B
Tue 07:46:57 AM 53.0860 3.5980 336° Northwest 495 570 34,000  Level FlightAware ADS-B
Tue 07:47:31 AM 53.1666 3.5685 336° Northwest 478 550 34,000  Level FlightAware UK
Tue 07:47:36 AM 53.1770 3.5650 336° Northwest 507 583 34,000  Level FlightAware ADS-B
Tue 07:48:16 AM 53.2670 3.5450 352° North 506 582 34,000  Level FlightAware ADS-B
Tue 07:48:49 AM 53.3390 3.5290 352° North 506 582 34,000  Level FlightAware ADS-B
Tue 07:48:55 AM 53.3611 3.5257 352° North 480 552 34,000  Level FlightAware UK
Tue 07:49:31 AM 53.4445 3.5072 352° North 480 552 34,000  Level FlightAware UK
Tue 07:49:32 AM 53.4450 3.5060 352° North 506 582 34,000  Level FlightAware ADS-B
Tue 07:50:17 AM 53.5470 3.4830 352° North 505 581 34,000  Level FlightAware ADS-B
Tue 07:50:19 AM 53.5557 3.4820 352° North 480 552 34,000  Level FlightAware UK
Tue 07:50:55 AM 53.6388 3.4633 352° North 482 555 34,000  Level FlightAware UK
Tue 07:50:57 AM 53.6410 3.4620 352° North 504 580 34,000  Level FlightAware ADS-B
Tue 07:51:42 AM 53.7450 3.4380 352° North 503 579 34,000  Level FlightAware ADS-B
Tue 07:51:43 AM 53.7497 3.4381 352° North 480 552 34,000  Level FlightAware UK
Tue 07:52:24 AM 53.8380 3.4170 352° North 502 578 34,000  Level FlightAware ADS-B
Tue 07:53:01 AM 53.9293 3.3970 352° North 478 550 34,000  Level FlightAware UK
Tue 07:53:06 AM 53.9380 3.3940 352° North 502 578 34,000  Level FlightAware ADS-B
Tue 07:53:41 AM 54.0110 3.3770 352° North 502 578 34,000  Level FlightAware ADS-B
Tue 07:54:21 AM 54.1040 3.3550 352° North 502 578 34,000  Level FlightAware ADS-B
Tue 07:55:03 AM 54.2040 3.3320 352° North 503 579 34,000  Level FlightAware ADS-B
Tue 07:55:44 AM 54.3010 3.3070 351° North 499 574 34,000  Level FlightAware ADS-B
Tue 07:56:37 AM 54.4213 3.2574 351° North 478 550 34,000  Level FlightAware UK
Tue 07:56:42 AM 54.4270 3.2530 351° North 496 571 34,000  Level FlightAware ADS-B
Tue 07:57:42 AM 54.5510 3.1960 345° North 497 572 34,000  Level FlightAware ADS-B
Tue 07:58:20 AM 54.6340 3.1280 335° Northwest 474 545 34,000  Level FlightAware ADS-B
Tue 07:59:07 AM 54.7150 3.0170 322° Northwest 466 536 34,000  Level FlightAware ADS-B
Tue 07:59:47 AM 54.7800 2.9180 319° Northwest 461 531 34,000  Level FlightAware ADS-B
Tue 08:00:19 AM 54.8198 2.8181 319° Northwest 480 552 34,000  Level FlightAware UK
Tue 08:00:43 AM 54.8400 2.7410 319° Northwest 445 512 34,000  Level FlightAware ADS-B
Tue 08:01:19 AM 54.8680 2.6340 294° West 442 509 34,000  Level FlightAware ADS-B
Tue 08:02:06 AM 54.9090 2.4780 295° West 446 513 34,000  Level FlightAware ADS-B
Tue 08:02:46 AM 54.9430 2.3470 295° West 447 514 34,000  Level FlightAware ADS-B
Tue 08:02:49 AM 54.9464 2.3305 295° West 478 550 34,000  Level FlightAware UK
Tue 08:03:19 AM 54.9719 2.2319 295° West 480 552 34,000  Level FlightAware UK
Tue 08:03:30 AM 54.9780 2.2100 295° West 445 512 34,000  Level FlightAware ADS-B
Tue 08:04:07 AM 55.0120 2.0810 295° West 448 516 34,000  Level FlightAware ADS-B
Tue 08:04:52 AM 55.0510 1.9300 294° West 448 516 34,000  Level FlightAware ADS-B
Tue 08:05:30 AM 55.0810 1.8090 293° West 447 514 34,000  Level FlightAware ADS-B
Tue 08:06:14 AM 55.1190 1.6600 294° West 448 516 34,000  Level FlightAware ADS-B
Tue 08:06:52 AM 55.1510 1.5360 294° West 448 516 34,000  Level FlightAware ADS-B
Tue 08:07:30 AM 55.1800 1.4170 293° West 449 517 34,000  Level FlightAware ADS-B
Tue 08:08:06 AM 55.2130 1.2870 294° West 449 517 34,000  Level FlightAware ADS-B
Tue 08:08:54 AM 55.2520 1.1300 294° West 449 517 34,000  Level FlightAware ADS-B
Tue 08:09:28 AM 55.2800 1.0140 293° West 449 517 34,000  Level FlightAware ADS-B
Tue 08:10:10 AM 55.3130 0.8790 293° West 450 518 34,000  Level FlightAware ADS-B
Tue 08:10:36 AM 55.3350 0.7900 294° West 450 518 34,000  Level FlightAware ADS-B
Tue 08:11:21 AM 55.3630 0.6730 293° West 450 518 34,000 -59 Level FlightAware ADS-B
Tue 08:12:18 AM 55.4184 0.4425 293° West 480 552 33,900  Descending FlightAware UK
Tue 08:12:18 AM 55.4160 0.4530 293° West 450 518 34,000 150 Climbing FlightAware ADS-B
Tue 08:12:58 AM 55.4490 0.3150 293° West 449 517 34,000  Level FlightAware ADS-B
Tue 08:13:39 AM 55.4810 0.1780 292° West 448 516 34,000  Level FlightAware ADS-B
Tue 08:14:25 AM 55.5180 0.0210 293° West 447 514 34,000  Level FlightAware ADS-B
Tue 08:15:03 AM 55.5490 -0.1080 293° West 447 514 34,000  Level FlightAware ADS-B
Tue 08:15:49 AM 55.5860 -0.2680 292° West 449 517 34,000  Level FlightAware ADS-B
Tue 08:16:27 AM 55.6140 -0.3910 292° West 448 516 34,000  Level FlightAware ADS-B
Tue 08:17:05 AM 55.6440 -0.5220 292° West 448 516 34,000  Level FlightAware ADS-B
Tue 08:17:53 AM 55.6810 -0.6850 292° West 449 517 34,000  Level FlightAware ADS-B
Tue 08:18:29 AM 55.7097 -0.8111 292° West 478 550 34,000  Level FlightAware UK
Tue 08:18:29 AM 55.7090 -0.8070 292° West 449 517 34,000  Level FlightAware ADS-B
Tue 08:19:10 AM 55.7390 -0.9430 291° West 448 516 34,000 -63 Level FlightAware ADS-B
Tue 08:20:05 AM 55.7827 -1.1375 291° West 480 552 33,900  Descending FlightAware UK
Tue 08:20:19 AM 55.7920 -1.1810 291° West 449 517 34,000 102 Climbing FlightAware ADS-B
Tue 08:21:04 AM 55.8270 -1.3380 292° West 447 514 34,000  Level FlightAware ADS-B
Tue 08:21:59 AM 55.8680 -1.5260 291° West 447 514 34,000  Level FlightAware ADS-B
Tue 08:22:37 AM 55.8960 -1.6570 291° West 447 514 34,000  Level FlightAware ADS-B
Tue 08:23:20 AM 55.9320 -1.8030 291° West 449 517 34,000 -133 Level FlightAware ADS-B
Tue 08:23:22 AM 55.9342 -1.8114 291° West 478 550 33,900  Descending FlightAware UK
Tue 08:23:52 AM 55.9612 -1.9113 291° West 480 552 34,000 158 Climbing FlightAware UK
Tue 08:24:00 AM 55.9680 -1.9370 291° West 449 517 34,000  Level FlightAware ADS-B
Tue 08:24:40 AM 56.0040 -2.0680 296° West 448 516 34,000  Level FlightAware ADS-B
Tue 08:25:20 AM 56.0370 -2.1920 296° West 447 514 34,000  Level FlightAware ADS-B
Tue 08:25:54 AM 56.0700 -2.3140 296° West 447 514 34,000  Level FlightAware ADS-B
Tue 08:26:40 AM 56.1110 -2.4670 296° West 447 514 34,000  Level FlightAware ADS-B
Tue 08:27:20 AM 56.1470 -2.6030 295° West 447 514 34,000  Level FlightAware ADS-B
Tue 08:27:58 AM 56.1798 -2.7296 295° West 478 550 34,000  Level FlightAware UK
Tue 08:28:04 AM 56.1850 -2.7500 295° West 448 516 34,000 -143 Level FlightAware ADS-B
Tue 08:28:40 AM 56.2164 -2.8699 295° West 478 550 33,900  Descending FlightAware UK
Tue 08:28:44 AM 56.2200 -2.8820 295° West 447 514 34,000  Climbing FlightAware ADS-B
Tue 08:29:28 AM 56.2583 -3.0313 295° West 478 550 33,900  Descending FlightAware UK
Tue 08:29:28 AM 56.2580 -3.0290 295° West 447 514 34,000  Climbing FlightAware ADS-B
Tue 08:29:58 AM 56.2845 -3.1322 295° West 476 548 33,900  Descending FlightAware UK
Tue 08:30:08 AM 56.2930 -3.1660 295° West 447 514 34,000 146 Climbing FlightAware ADS-B
Tue 08:30:39 AM 56.3206 -3.2730 295° West 478 550 34,000  Level FlightAware UK
Tue 08:30:50 AM 56.3290 -3.3070 295° West 447 514 34,000  Level FlightAware ADS-B
Tue 08:31:34 AM 56.3680 -3.4540 296° West 449 517 34,000  Level FlightAware ADS-B
Tue 08:32:14 AM 56.4080 -3.5890 298° West 450 518 34,000  Level FlightAware ADS-B
Tue 08:32:58 AM 56.4510 -3.7300 299° West 451 519 34,000  Level FlightAware ADS-B
Tue 08:33:38 AM 56.4920 -3.8660 299° West 451 519 34,000  Level FlightAware ADS-B
Tue 08:34:18 AM 56.5300 -3.9900 299° West 450 518 34,000  Level FlightAware ADS-B
Tue 08:35:02 AM 56.5750 -4.1410 298° West 448 516 34,000  Level FlightAware ADS-B
Tue 08:35:43 AM 56.6110 -4.2630 298° West 449 517 34,000  Level FlightAware ADS-B
Tue 08:35:45 AM 56.6183 -4.2856 298° West 478 550 34,000  Level FlightAware UK
Tue 08:36:21 AM 56.6536 -4.4038 298° West 476 548 34,000  Level FlightAware UK
Tue 08:36:23 AM 56.6540 -4.4060 298° West 449 517 34,000  Level FlightAware ADS-B
Tue 08:37:08 AM 56.6970 -4.5510 298° West 450 518 34,000  Level FlightAware ADS-B
Tue 08:37:48 AM 56.7340 -4.6890 296° West 450 518 34,000 -76 Level FlightAware ADS-B
Tue 08:38:27 AM 56.7700 -4.8298 296° West 478 550 33,900  Descending FlightAware UK
Tue 08:38:34 AM 56.7750 -4.8490 296° West 450 518 34,000 128 Climbing FlightAware ADS-B
Tue 08:39:14 AM 56.8100 -4.9850 295° West 451 519 34,000 -85 Level FlightAware ADS-B
Tue 08:39:45 AM 56.8397 -5.0965 295° West 478 550 33,900  Descending FlightAware UK
Tue 08:39:59 AM 56.8470 -5.1260 295° West 451 519 34,000  Climbing FlightAware ADS-B
Tue 08:40:33 AM 56.8828 -5.2615 295° West 476 548 33,900  Descending FlightAware UK
Tue 08:40:35 AM 56.8830 -5.2630 295° West 454 522 34,000 143 Climbing FlightAware ADS-B
Tue 08:41:15 AM 56.9200 -5.4040 296° West 455 524 34,000 -79 Level FlightAware ADS-B
Tue 08:41:51 AM 56.9535 -5.5313 296° West 474 545 33,900  Descending FlightAware UK
Tue 08:42:00 AM 56.9590 -5.5540 296° West 457 526 34,000 122 Climbing FlightAware ADS-B
Tue 08:42:40 AM 56.9970 -5.7000 296° West 459 528 34,000 -74 Level FlightAware ADS-B
Tue 08:43:21 AM 57.0348 -5.8472 296° West 474 545 33,900  Descending FlightAware UK
Tue 08:43:25 AM 57.0370 -5.8560 296° West 461 531 34,000 136 Climbing FlightAware ADS-B
Tue 08:44:05 AM 57.0730 -5.9970 295° West 462 532 34,000 160 Level FlightAware ADS-B
Tue 08:44:40 AM 57.1050 -6.1250 295° West 466 536 34,200 553 Climbing FlightAware ADS-B
Tue 08:45:21 AM 57.1390 -6.2590 295° West 465 535 34,700 795 Climbing FlightAware ADS-B
Tue 08:46:03 AM 57.1804 -6.4254 295° West 478 550 35,300 955 Climbing FlightAware UK
Tue 08:46:05 AM 57.1800 -6.4250 295° West 463 533 35,400 750 Climbing FlightAware ADS-B
Tue 08:46:35 AM 57.2080 -6.5380 295° West 461 531 35,700 450 Climbing FlightAware ADS-B
Tue 08:47:25 AM 57.2490 -6.7040 295° West 462 532 36,000 146 Climbing FlightAware ADS-B
Tue 08:47:57 AM 57.2812 -6.8327 295° West 476 548 35,900  Descending FlightAware UK
Tue 08:48:18 AM 57.2990 -6.9050 295° West 459 528 36,000  Climbing FlightAware ADS-B
Tue 08:48:57 AM 57.3334 -7.0486 295° West 474 545 35,900  Descending FlightAware UK
Tue 08:48:57 AM 57.3330 -7.0470 295° West 459 528 36,000  Climbing FlightAware ADS-B
Tue 08:49:27 AM 57.3595 -7.1567 295° West 478 550 35,900  Descending FlightAware UK
Tue 08:49:33 AM 57.3620 -7.1680 295° West 458 527 36,000  Climbing FlightAware ADS-B
Tue 08:50:27 AM 57.4115 -7.3731 295° West 476 548 35,900  Descending FlightAware UK
Tue 08:50:29 AM 57.4110 -7.3710 295° West 460 529 36,000 111 Climbing FlightAware ADS-B
Tue 08:51:21 AM 57.4580 -7.5680 294° West 460 529 36,000  Level FlightAware ADS-B
Tue 08:52:01 AM 57.4920 -7.7140 293° West 461 531 36,000  Level FlightAware ADS-B
Tue 08:52:46 AM 57.5300 -7.8760 294° West 460 529 36,000  Level FlightAware ADS-B
Tue 08:53:28 AM 57.5660 -8.0300 294° West 460 529 36,000  Level FlightAware ADS-B
Tue 08:54:08 AM 57.6000 -8.1790 293° West 461 531 36,000  Level FlightAware ADS-B
Tue 08:54:54 AM 57.6380 -8.3440 293° West 464 534 36,000  Level FlightAware ADS-B
Tue 08:55:52 AM 57.6820 -8.5410 293° West 463 533 36,000 -88 Level FlightAware ADS-B
Tue 08:56:02 AM 57.6960 -8.6006 293° West 478 550 35,900  Descending FlightAware UK
Tue 08:56:34 AM 57.7210 -8.7150 293° West 463 533 36,000 83 Climbing FlightAware ADS-B
Tue 08:57:14 AM 57.7550 -8.8656 293° West 478 550 36,000  Level FlightAware UK
Tue 08:57:14 AM 57.7510 -8.8480 293° West 462 532 36,000  Level FlightAware ADS-B
Tue 08:57:56 AM 57.7892 -9.0196 293° West 476 548 36,000  Level FlightAware UK
Tue 08:58:03 AM 57.7840 -9.0030 293° West 462 532 36,000  Level FlightAware ADS-B
Tue 08:58:44 AM 57.8270 -9.1930 293° West 461 531 36,000  Level FlightAware ADS-B
Tue 08:59:25 AM 57.8600 -9.3440 292° West 462 532 36,000  Level FlightAware ADS-B
Tue 09:00:05 AM 57.8920 -9.4930 292° West 458 527 36,000  Level FlightAware ADS-B
Tue 09:00:45 AM 57.9220 -9.6310 292° West 458 527 36,000  Level FlightAware ADS-B
Tue 09:01:25 AM 57.9550 -9.7880 292° West 457 526 36,000  Level FlightAware ADS-B
Tue 09:02:06 AM 57.9870 -9.9400 292° West 456 525 36,000  Level FlightAware ADS-B
Tue 09:02:46 AM 58.0220 -10.0880 294° West 461 531 36,000  Level FlightAware ADS-B
Tue 09:03:31 AM 58.0630 -10.2510 295° West 461 531 36,000  Level FlightAware ADS-B
Tue 09:04:12 AM 58.1000 -10.3990 295° West 460 529 36,000  Level FlightAware ADS-B
Tue 09:05:08 AM 58.1490 -10.5980 295° West 459 528 36,000  Level FlightAware ADS-B
Tue 09:05:48 AM 58.1830 -10.7360 295° West 459 528 36,000  Level FlightAware ADS-B
Tue 09:06:33 AM 58.2250 -10.9100 295° West 458 527 36,000  Level FlightAware ADS-B
Tue 09:07:28 AM 58.2730 -11.1110 294° West 455 524 36,000  Level FlightAware ADS-B
Tue 09:08:08 AM 58.3080 -11.2550 295° West 455 524 36,000  Level FlightAware ADS-B
Tue 09:08:48 AM 58.3430 -11.4020 294° West 456 525 36,000  Level FlightAware ADS-B
Tue 09:09:33 AM 58.3820 -11.5680 294° West 456 525 36,000  Level FlightAware ADS-B
Tue 09:10:14 AM 58.4140 -11.7040 294° West 456 525 36,000  Level FlightAware ADS-B
Tue 09:10:58 AM 58.4540 -11.8790 294° West 456 525 36,000  Level FlightAware ADS-B
Tue 09:11:34 AM 58.4840 -12.0080 294° West 456 525 36,000  Level FlightAware ADS-B
Tue 09:12:40 AM 58.5290 -12.2190 292° West 456 525 36,000  Level FlightAware ADS-B
Tue 09:13:19 AM 58.5750 -12.4060 295° West 459 528 36,000  Level FlightAware ADS-B
Tue 09:14:00 AM 58.6030 -12.5310 293° West 459 528 36,000  Level FlightAware ADS-B
Tue 09:14:37 AM 58.6290 -12.6490 293° West 459 528 36,000  Level FlightAware ADS-B
Tue 09:15:25 AM 58.6630 -12.8020 293° West 459 528 36,000  Level FlightAware ADS-B
Tue 09:16:25 AM 58.7050 -12.9940 293° West 459 528 36,000  Level FlightAware ADS-B
Tue 09:17:13 AM 58.7390 -13.1480 293° West 459 528 36,000  Level FlightAware ADS-B
Tue 09:17:50 AM 58.7650 -13.2660 293° West 459 528 36,000  Level FlightAware ADS-B
Tue 09:18:26 AM 58.7900 -13.3820 293° West 459 528 36,000  Level FlightAware ADS-B
Tue 09:19:14 AM 58.8240 -13.5360 293° West 459 528 36,000  Level FlightAware ADS-B
Tue 09:19:50 AM 58.8490 -13.6510 293° West 459 528 36,000  Level FlightAware ADS-B
Tue 09:20:38 AM 58.8830 -13.8060 293° West 459 528 36,000  Level FlightAware ADS-B
Tue 09:21:14 AM 58.9090 -13.9210 294° West 459 528 36,000  Level FlightAware ADS-B
Tue 09:22:02 AM 58.9420 -14.0760 292° West 459 528 36,000  Level FlightAware ADS-B
Tue 09:22:38 AM 58.9680 -14.1920 294° West 459 528 36,000  Level FlightAware ADS-B
Tue 09:23:18 AM 58.9960 -14.3210 293° West 459 528 36,000  Level FlightAware ADS-B
Tue 09:26:00 AM 59.0687 -14.9469 283° West  Level Estimated
Tue 09:27:00 AM 59.0949 -15.1793 282° West  Level Estimated
Tue 09:28:00 AM 59.1206 -15.4122 282° West  Level Estimated
Tue 09:29:00 AM 59.1460 -15.6453 282° West  Level Estimated
Tue 09:30:00 AM 59.1709 -15.8788 282° West  Level Estimated
Tue 09:31:00 AM 59.1954 -16.1127 282° West  Level Estimated
Tue 09:32:00 AM 59.2194 -16.3469 281° West  Level Estimated
Tue 09:33:00 AM 59.2431 -16.5814 281° West  Level Estimated
Tue 09:34:00 AM 59.2663 -16.8162 281° West  Level Estimated
Tue 09:35:00 AM 59.2891 -17.0514 281° West  Level Estimated
Tue 09:36:00 AM 59.3115 -17.2868 281° West  Level Estimated
Tue 09:37:00 AM 59.3334 -17.5226 280° West  Level Estimated
Tue 09:38:00 AM 59.3550 -17.7587 280° West  Level Estimated
Tue 09:39:00 AM 59.3761 -17.9950 280° West  Level Estimated
Tue 09:40:00 AM 59.3967 -18.2317 280° West  Level Estimated
Tue 09:41:00 AM 59.4170 -18.4687 280° West  Level Estimated
Tue 09:42:00 AM 59.4368 -18.7059 279° West  Level Estimated
Tue 09:43:00 AM 59.4562 -18.9434 279° West  Level Estimated
Tue 09:44:00 AM 59.4751 -19.1812 279° West  Level Estimated
Tue 09:45:00 AM 59.4936 -19.4192 279° West  Level Estimated
Tue 09:46:00 AM 59.5117 -19.6575 279° West  Level Estimated
Tue 09:47:00 AM 59.5294 -19.8960 278° West  Level Estimated
Tue 09:48:00 AM 59.5466 -20.1348 278° West  Level Estimated
Tue 09:49:00 AM 59.5634 -20.3738 278° West  Level Estimated
Tue 09:50:00 AM 59.5797 -20.6127 278° West  Level Estimated
Tue 09:51:00 AM 59.5956 -20.8517 278° West  Level Estimated
Tue 09:52:00 AM 59.6110 -21.0910 277° West  Level Estimated
Tue 09:53:00 AM 59.6260 -21.3304 277° West  Level Estimated
Tue 09:54:00 AM 59.6406 -21.5701 277° West  Level Estimated
Tue 09:54:12 AM 60.4280 -21.6900 277° West 433 498 36,000  Level FlightAware ADS-B
Tue 09:54:52 AM 60.4620 -21.8360 295° West 433 498 36,000  Level FlightAware ADS-B
Tue 09:55:00 AM 59.6547 -21.8100 277° West  Level Estimated
Tue 09:55:38 AM 60.5010 -22.0060 295° West 433 498 36,000  Level FlightAware ADS-B
Tue 09:56:18 AM 60.5340 -22.1500 295° West 434 499 36,000  Level FlightAware ADS-B
Tue 09:56:57 AM 60.5620 -22.2770 294° West 434 499 36,000  Level FlightAware ADS-B
Tue 09:57:45 AM 60.5960 -22.4290 295° West 434 499 36,000  Level FlightAware ADS-B
Tue 09:58:24 AM 60.6410 -22.6210 296° West 435 501 36,000  Level FlightAware ADS-B
Tue 09:59:08 AM 60.6770 -22.7840 294° West 436 502 36,000  Level FlightAware ADS-B
Tue 09:59:48 AM 60.7100 -22.9340 294° West 437 503 36,000  Level FlightAware ADS-B
Tue 10:00:31 AM 60.7440 -23.0920 294° West 436 502 36,000  Level FlightAware ADS-B
Tue 10:01:12 AM 60.7790 -23.2490 295° West 436 502 36,000  Level FlightAware ADS-B
Tue 10:01:56 AM 60.8140 -23.4140 294° West 435 501 36,000  Level FlightAware ADS-B
Tue 10:02:28 AM 60.8400 -23.5350 294° West 435 501 36,000  Level FlightAware ADS-B
Tue 10:03:12 AM 60.8750 -23.7010 293° West 435 501 36,000  Level FlightAware ADS-B
Tue 10:03:50 AM 60.9050 -23.8430 294° West 435 501 36,000  Level FlightAware ADS-B
Tue 10:04:27 AM 60.9300 -23.9630 293° West 435 501 36,000  Level FlightAware ADS-B
Tue 10:05:04 AM 60.9550 -24.0830 293° West 435 501 36,000  Level FlightAware ADS-B
Tue 10:05:52 AM 60.9870 -24.2390 293° West 435 501 36,000  Level FlightAware ADS-B
Tue 10:06:36 AM 61.0360 -24.4750 293° West 436 502 36,000  Level FlightAware ADS-B
Tue 10:07:16 AM 61.0680 -24.6290 293° West 436 502 36,000  Level FlightAware ADS-B
Tue 10:07:58 AM 61.1000 -24.7900 292° West 436 502 36,000  Level FlightAware ADS-B
Tue 10:08:42 AM 61.1340 -24.9590 293° West 436 502 36,000  Level FlightAware ADS-B
Tue 10:09:20 AM 61.1630 -25.1060 292° West 437 503 36,000  Level FlightAware ADS-B
Tue 10:10:06 AM 61.1970 -25.2800 292° West 438 504 36,000  Level FlightAware ADS-B
Tue 10:10:46 AM 61.2290 -25.4410 292° West 437 503 36,000  Level FlightAware ADS-B
Tue 10:11:42 AM 61.2640 -25.6290 291° West 438 504 36,000  Level FlightAware ADS-B
Tue 10:12:30 AM 61.3070 -25.8460 293° West 439 505 36,000  Level FlightAware ADS-B
Tue 10:13:14 AM 61.3390 -26.0180 291° West 441 507 36,000  Level FlightAware ADS-B
Tue 10:14:11 AM 61.3800 -26.2360 292° West 443 510 36,000  Level FlightAware ADS-B
Tue 10:14:47 AM 61.4080 -26.3860 291° West 444 511 36,000  Level FlightAware ADS-B
Tue 10:15:32 AM 61.4380 -26.5470 291° West 445 512 36,000  Level FlightAware ADS-B
Tue 10:17:03 AM 61.4990 -26.8790 291° West 447 514 36,000  Level FlightAware ADS-B
Tue 10:17:46 AM 61.5390 -27.1080 290° West 448 516 36,000  Level FlightAware ADS-B
Tue 10:18:54 AM 61.5880 -27.3820 291° West 448 516 36,000  Level FlightAware ADS-B
Tue 10:19:26 AM 61.6110 -27.5140 290° West 449 517 36,000  Level FlightAware ADS-B
Tue 10:20:16 AM 61.6410 -27.6870 290° West 449 517 36,000  Level FlightAware ADS-B
Tue 10:20:53 AM 61.6640 -27.8170 290° West 449 517 36,000  Level FlightAware ADS-B
Tue 10:21:44 AM 61.7090 -28.0800 290° West 452 520 36,000  Level FlightAware ADS-B
Tue 10:22:20 AM 61.7340 -28.2290 290° West 453 521 36,000  Level FlightAware ADS-B
Tue 10:22:59 AM 61.7610 -28.3890 290° West 453 521 36,000  Level FlightAware ADS-B
Tue 10:23:48 AM 61.7940 -28.5890 289° West 454 522 36,000  Level FlightAware ADS-B
Tue 10:24:27 AM 61.8210 -28.7570 289° West 455 524 36,000  Level FlightAware ADS-B
Tue 10:25:13 AM 61.8530 -28.9510 289° West 455 524 36,000  Level FlightAware ADS-B
Tue 10:25:53 AM 61.8800 -29.1170 289° West 455 524 36,000  Level FlightAware ADS-B
Tue 10:26:29 AM 61.9040 -29.2700 288° West 455 524 36,000  Level FlightAware ADS-B
Tue 10:27:04 AM 61.9240 -29.4000 288° West 455 524 36,000  Level FlightAware ADS-B
Tue 10:27:55 AM 61.9610 -29.6320 289° West 457 526 36,000  Level FlightAware ADS-B
Tue 10:28:36 AM 61.9880 -29.8060 288° West 457 526 36,000  Level FlightAware ADS-B
Tue 10:29:13 AM 62.0120 -29.9640 288° West 458 527 36,000  Level FlightAware ADS-B
Tue 10:30:35 AM 62.0560 -30.2710 267° West 459 528 36,000  Level FlightAware ADS-B
Tue 10:31:00 AM 61.9987 -30.4470 267° West  Level Estimated
Tue 10:31:59 AM 62.1000 -30.5800 287° West 459 528 36,000  Level FlightAware ADS-B
Tue 10:32:35 AM 62.1190 -30.7130 287° West 459 528 36,000  Level FlightAware ADS-B
Tue 10:33:35 AM 62.1510 -30.9350 287° West 459 528 36,000  Level FlightAware ADS-B
Tue 10:34:24 AM 62.1770 -31.1160 287° West 459 528 36,000  Level FlightAware ADS-B
Tue 10:35:00 AM 62.1960 -31.2490 287° West 459 528 36,000  Level FlightAware ADS-B
Tue 10:35:47 AM 62.2200 -31.4230 287° West 459 528 36,000  Level FlightAware ADS-B
Tue 10:36:23 AM 62.2390 -31.5570 287° West 459 528 36,000  Level FlightAware ADS-B
Tue 10:37:12 AM 62.2650 -31.7380 287° West 459 528 36,000  Level FlightAware ADS-B
Tue 10:37:48 AM 62.2840 -31.8720 287° West 459 528 36,000  Level FlightAware ADS-B
Tue 10:38:36 AM 62.3100 -32.0500 288° West 459 528 36,000  Level FlightAware ADS-B
Tue 10:41:00 AM 62.3836 -32.6891 284° West  Level FlightAware Approximate
Tue 10:42:00 AM 62.4134 -32.9564 284° West  Level FlightAware Approximate
Tue 10:43:00 AM 62.4427 -33.2241 283° West  Level FlightAware Approximate
Tue 10:44:00 AM 62.4714 -33.4924 283° West  Level FlightAware Approximate
Tue 10:45:00 AM 62.4997 -33.7612 283° West  Level FlightAware Approximate
Tue 10:46:00 AM 62.5274 -34.0304 283° West  Level FlightAware Approximate
Tue 10:47:00 AM 62.5546 -34.3002 282° West  Level FlightAware Approximate
Tue 10:48:00 AM 62.5813 -34.5705 282° West  Level FlightAware Approximate
Tue 10:49:00 AM 62.6075 -34.8413 282° West  Level FlightAware Approximate
Tue 10:50:00 AM 62.6331 -35.1125 282° West  Level FlightAware Approximate
Tue 10:51:00 AM 62.6582 -35.3842 281° West  Level FlightAware Approximate
Tue 10:52:00 AM 62.6828 -35.6563 281° West  Level FlightAware Approximate
Tue 10:53:00 AM 62.7069 -35.9290 281° West  Level FlightAware Approximate
Tue 10:54:00 AM 62.7305 -36.2020 281° West  Level FlightAware Approximate
Tue 10:55:00 AM 62.7535 -36.4755 281° West  Level FlightAware Approximate
Tue 10:56:00 AM 62.7760 -36.7494 280° West  Level FlightAware Approximate
Tue 10:57:00 AM 62.7979 -37.0237 280° West  Level FlightAware Approximate
Tue 10:58:00 AM 62.8193 -37.2984 280° West  Level FlightAware Approximate
Tue 10:59:00 AM 62.8402 -37.5735 280° West  Level FlightAware Approximate
Tue 11:00:00 AM 62.8605 -37.8489 279° West  Level FlightAware Approximate
Tue 11:01:00 AM 62.8803 -38.1248 279° West  Level FlightAware Approximate
Tue 11:02:00 AM 62.8996 -38.4011 279° West  Level FlightAware Approximate
Tue 11:03:00 AM 62.9183 -38.6776 279° West  Level FlightAware Approximate
Tue 11:04:00 AM 62.9365 -38.9546 278° West  Level FlightAware Approximate
Tue 11:05:00 AM 62.9541 -39.2319 278° West  Level FlightAware Approximate
Tue 11:06:00 AM 62.9712 -39.5095 278° West  Level FlightAware Approximate
Tue 11:07:00 AM 62.9877 -39.7874 278° West  Level FlightAware Approximate
Tue 11:08:00 AM 62.9959 -40.0663 262° West  Level FlightAware Approximate
Tue 11:09:00 AM 62.9783 -40.3440 262° West  Level FlightAware Approximate
Tue 11:10:00 AM 62.9602 -40.6213 262° West  Level FlightAware Approximate
Tue 11:11:00 AM 62.9415 -40.8983 262° West  Level FlightAware Approximate
Tue 11:12:00 AM 62.9223 -41.1750 261° West  Level FlightAware Approximate
Tue 11:13:00 AM 62.9026 -41.4512 261° West  Level FlightAware Approximate
Tue 11:14:00 AM 62.8823 -41.7271 261° West  Level FlightAware Approximate
Tue 11:15:00 AM 62.8614 -42.0027 261° West  Level FlightAware Approximate
Tue 11:16:00 AM 62.8401 -42.2778 260° West  Level FlightAware Approximate
Tue 11:17:00 AM 62.8182 -42.5525 260° West  Level FlightAware Approximate
Tue 11:18:00 AM 62.7957 -42.8268 260° West  Level FlightAware Approximate
Tue 11:19:00 AM 62.7728 -43.1007 260° West  Level FlightAware Approximate
Tue 11:20:00 AM 62.7493 -43.3741 259° West  Level FlightAware Approximate
Tue 11:21:00 AM 62.7253 -43.6471 259° West  Level FlightAware Approximate
Tue 11:22:00 AM 62.7007 -43.9197 259° West  Level FlightAware Approximate
Tue 11:23:00 AM 62.6756 -44.1918 259° West  Level FlightAware Approximate
Tue 11:24:00 AM 62.6500 -44.4634 259° West  Level FlightAware Approximate
Tue 11:25:00 AM 62.6239 -44.7346 258° West  Level FlightAware Approximate
Tue 11:26:00 AM 62.5972 -45.0053 258° West  Level FlightAware Approximate
Tue 11:27:00 AM 62.5700 -45.2755 258° West  Level FlightAware Approximate
Tue 11:28:00 AM 62.5423 -45.5452 258° West  Level FlightAware Approximate
Tue 11:29:00 AM 62.5141 -45.8143 257° West  Level FlightAware Approximate
Tue 11:30:00 AM 62.4854 -46.0830 257° West  Level FlightAware Approximate
Tue 11:31:00 AM 62.4561 -46.3512 257° West  Level FlightAware Approximate
Tue 11:32:00 AM 62.4263 -46.6188 257° West  Level FlightAware Approximate
Tue 11:33:00 AM 62.3961 -46.8859 256° West  Level FlightAware Approximate
Tue 11:34:00 AM 62.3653 -47.1524 256° West  Level FlightAware Approximate
Tue 11:35:00 AM 62.3340 -47.4184 256° West  Level FlightAware Approximate
Tue 11:36:00 AM 62.3022 -47.6838 256° West  Level FlightAware Approximate
Tue 11:37:00 AM 62.2699 -47.9487 255° West  Level FlightAware Approximate
Tue 11:38:00 AM 62.2371 -48.2130 255° West  Level FlightAware Approximate
Tue 11:38:27 AM 62.1230 -49.2300 255° West 499 574 36,000  Level FlightAware ADS-B
Tue 11:39:00 AM 62.2038 -48.4767 255° West  Level FlightAware Approximate
Tue 11:39:26 AM 62.0860 -49.5010 254° West 498 573 36,000  Level FlightAware ADS-B
Tue 11:40:06 AM 62.0630 -49.6610 253° West 498 573 36,000  Level FlightAware ADS-B
Tue 11:40:54 AM 62.0360 -49.8520 253° West 498 573 36,000  Level FlightAware ADS-B
Tue 11:41:37 AM 61.9990 -50.1230 254° West 500 575 36,000  Level FlightAware ADS-B
Tue 11:42:13 AM 61.9740 -50.2820 252° West 500 575 36,000  Level FlightAware ADS-B
Tue 11:42:57 AM 61.9410 -50.4960 252° West 501 577 36,000  Level FlightAware ADS-B
Tue 11:43:55 AM 61.9010 -50.7460 251° West 501 577 36,000  Level FlightAware ADS-B
Tue 11:44:33 AM 61.8730 -50.9190 251° West 502 578 36,000  Level FlightAware ADS-B
Tue 11:47:00 AM 61.7685 -51.5415 251° West  Level FlightAware Approximate
Tue 11:47:11 AM 61.7710 -51.5420 251° West 502 578 36,000  Level FlightAware ADS-B
Tue 11:48:33 AM 61.7180 -51.8650 251° West 502 578 36,000  Level FlightAware ADS-B
Tue 11:49:09 AM 61.6950 -52.0070 251° West 502 578 36,000  Level FlightAware ADS-B
Tue 11:49:47 AM 61.6700 -52.1570 251° West 502 578 36,000  Level FlightAware ADS-B
Tue 11:50:35 AM 61.6390 -52.3450 251° West 502 578 36,000  Level FlightAware ADS-B
Tue 11:51:22 AM 61.6090 -52.5300 251° West 502 578 36,000  Level FlightAware ADS-B
Tue 11:51:48 AM 61.5920 -52.6320 251° West 502 578 36,000  Level FlightAware ADS-B
Tue 11:52:36 AM 61.5610 -52.8200 251° West 502 578 36,000  Level FlightAware ADS-B
Tue 11:53:12 AM 61.5380 -52.9610 251° West 502 578 36,000  Level FlightAware ADS-B
Tue 11:54:01 AM 61.5070 -53.1530 251° West 502 578 36,000  Level FlightAware ADS-B
Tue 11:55:22 AM 61.3667 -53.8167 251° West 510 587 36,000  Level Gander Center
Tue 11:56:22 AM 61.3167 -54.1167 251° West 510 587 36,000  Level Gander Center
Tue 11:57:22 AM 61.2667 -54.3667 248° West 510 587 36,000  Level Gander Center
Tue 11:58:22 AM 61.2000 -54.6167 241° Southwest 510 587 36,000  Level Gander Center
Tue 11:59:22 AM 61.1667 -54.9000 256° West 510 587 36,000  Level Gander Center
Tue 12:00:22 PM 61.1167 -55.1500 248° West 510 587 36,000  Level Gander Center
Tue 12:01:22 PM 61.0667 -55.4500 251° West 510 587 36,000  Level Gander Center
Tue 12:02:22 PM 61.0000 -55.7000 241° Southwest 510 587 36,000  Level Gander Center
Tue 12:03:22 PM 60.9500 -55.9833 250° West 500 575 36,000  Level Gander Center
Tue 12:04:22 PM 60.8833 -56.1833 236° Southwest 510 587 36,000  Level Gander Center
Tue 12:05:22 PM 60.8333 -56.5000 252° West 510 587 36,000  Level Gander Center
Tue 12:06:22 PM 60.7667 -56.7167 238° Southwest 510 587 36,000  Level Gander Center
Tue 12:07:22 PM 60.7167 -57.0333 252° West 510 587 36,000  Level Gander Center
Tue 12:08:22 PM 60.6667 -57.2833 248° West 510 587 36,000  Level Gander Center
Tue 12:09:22 PM 60.6000 -57.5500 243° Southwest 510 587 36,000  Level Gander Center
Tue 12:10:22 PM 60.5333 -57.8000 242° Southwest 500 575 36,000  Level Gander Center
Tue 12:11:22 PM 60.4833 -58.0833 250° West 500 575 36,000  Level Gander Center
Tue 12:12:22 PM 60.4167 -58.3167 240° Southwest 500 575 36,000  Level Gander Center
Tue 12:13:22 PM 60.3500 -58.5667 242° Southwest 500 575 36,000  Level Gander Center
Tue 12:14:22 PM 60.3000 -58.8333 249° West 500 575 36,000  Level Gander Center
Tue 12:15:22 PM 60.2333 -59.0667 240° Southwest 500 575 36,000  Level Gander Center
Tue 12:16:22 PM 60.1667 -59.3167 242° Southwest 500 575 36,000  Level Gander Center
Tue 12:17:22 PM 60.1000 -59.5833 243° Southwest 500 575 36,000  Level Gander Center
Tue 12:18:22 PM 60.0500 -59.8167 247° West 500 575 36,000  Level Gander Center
Tue 12:19:22 PM 60.0000 -60.0833 250° West 500 575 36,000  Level Gander Center
Tue 12:20:22 PM 59.9500 -60.3167 247° West 500 575 36,000  Level Gander Center
Tue 12:21:22 PM 59.9167 -60.5833 256° West 500 575 36,000  Level Gander Center
Tue 12:22:22 PM 59.8667 -60.8167 247° West 490 564 36,000  Level Gander Center
Tue 12:23:22 PM 59.8333 -61.0833 256° West 490 564 36,000  Level Gander Center
Tue 12:24:22 PM 59.7833 -61.3500 250° West 500 575 36,000  Level Gander Center
Tue 12:25:22 PM 59.7333 -61.6167 250° West 490 564 36,000  Level Gander Center
Tue 12:26:22 PM 59.7000 -61.8833 256° West 500 575 36,000  Level Gander Center
Tue 12:27:22 PM 59.6667 -62.1333 255° West 490 564 36,000  Level Gander Center
Tue 12:28:22 PM 59.6000 -62.3667 241° Southwest 490 564 36,000  Level Gander Center
Tue 12:29:22 PM 59.5333 -62.6000 241° Southwest 500 575 36,000  Level Gander Center
Tue 12:30:22 PM 59.4500 -62.8167 233° Southwest 500 575 36,000  Level Gander Center
Tue 12:31:22 PM 59.3500 -63.0500 230° Southwest 500 575 36,000  Level Gander Center
Tue 12:32:22 PM 59.2667 -63.2667 233° Southwest 490 564 36,000  Level Gander Center
Tue 12:33:22 PM 59.2000 -63.4667 237° Southwest 490 564 36,000  Level Gander Center
Tue 12:34:22 PM 59.1167 -63.6833 233° Southwest 500 575 36,000  Level Gander Center
Tue 12:35:22 PM 59.0333 -63.9000 233° Southwest 490 564 36,000  Level Gander Center
Tue 12:36:22 PM 58.9500 -64.1167 233° Southwest 490 564 36,000  Level Gander Center
Tue 12:37:22 PM 58.8667 -64.3167 231° Southwest 490 564 36,000  Level Gander Center
Tue 12:38:22 PM 58.7833 -64.5333 233° Southwest 490 564 36,000  Level Gander Center
Tue 12:39:22 PM 58.7167 -64.7167 235° Southwest 490 564 36,000  Level Gander Center
Tue 12:40:22 PM 58.6167 -64.9333 229° Southwest 490 564 36,000  Level Gander Center
Tue 12:41:22 PM 58.5333 -65.1500 234° Southwest 490 564 36,000  Level Gander Center
Tue 12:42:22 PM 58.4667 -65.3333 235° Southwest 490 564 36,000  Level Gander Center
Tue 12:43:22 PM 58.3667 -65.5333 226° Southwest 490 564 36,000  Level Gander Center
Tue 12:44:22 PM 58.2833 -65.7500 234° Southwest 490 564 36,000  Level Gander Center
Tue 12:45:22 PM 58.1833 -65.9667 229° Southwest 490 564 36,000  Level Gander Center
Tue 12:46:22 PM 58.1167 -66.1833 240° Southwest 490 564 36,000  Level Gander Center
Tue 12:47:22 PM 58.0167 -66.3500 221° Southwest 490 564 36,000  Level Gander Center
Tue 12:48:22 PM 57.9333 -66.5667 234° Southwest 490 564 36,000  Level Gander Center
Tue 12:49:22 PM 57.8500 -66.7667 232° Southwest 490 564 36,000  Level Gander Center
Tue 12:50:22 PM 57.7667 -66.9500 230° Southwest 490 564 36,000  Level Gander Center
Tue 12:51:22 PM 57.6667 -67.1500 227° Southwest 490 564 36,000  Level Gander Center
Tue 12:52:22 PM 57.6000 -67.3167 233° Southwest 490 564 36,000  Level Gander Center
Tue 12:53:22 PM 57.5000 -67.5333 229° Southwest 490 564 36,000  Level Gander Center
Tue 12:54:22 PM 57.4333 -67.7333 238° Southwest 480 552 36,000  Level Gander Center
Tue 12:55:22 PM 57.3333 -67.9000 222° Southwest 480 552 36,000  Level Gander Center
Tue 12:56:22 PM 57.2333 -68.1000 227° Southwest 480 552 36,000  Level Gander Center
Tue 12:57:22 PM 57.1667 -68.2667 234° Southwest 490 564 36,000  Level Gander Center
Tue 12:58:22 PM 57.0667 -68.4667 227° Southwest 490 564 36,000  Level Gander Center
Tue 12:59:22 PM 56.9833 -68.6667 233° Southwest 500 575 36,000  Level Gander Center
Tue 01:00:22 PM 56.9000 -68.8667 233° Southwest 500 575 36,000  Level Gander Center
Tue 01:01:22 PM 56.8000 -69.0667 228° Southwest 500 575 36,000  Level Gander Center
Tue 01:02:22 PM 56.7000 -69.2667 228° Southwest 500 575 36,000  Level Gander Center
Tue 01:03:22 PM 56.6167 -69.4500 230° Southwest 500 575 36,000  Level Gander Center
Tue 01:04:22 PM 56.5167 -69.6167 223° Southwest 490 564 36,000  Level Gander Center
Tue 01:05:22 PM 56.4333 -69.8167 233° Southwest 490 564 36,000  Level Gander Center
Tue 01:06:22 PM 56.3333 -69.9667 220° Southwest 480 552 36,000  Level Gander Center
Tue 01:07:22 PM 56.2667 -70.1667 239° Southwest 470 541 36,000  Level Gander Center
Tue 01:08:22 PM 56.1667 -70.3167 220° Southwest 470 541 36,000  Level Gander Center
Tue 01:09:22 PM 56.0833 -70.4833 228° Southwest 470 541 36,000  Level Gander Center
Tue 01:10:22 PM 55.9833 -70.6667 226° Southwest 470 541 36,000  Level Gander Center
Tue 01:11:22 PM 55.9167 -70.8333 235° Southwest 460 529 36,000  Level Gander Center
Tue 01:12:22 PM 55.8167 -71.0000 223° Southwest 460 529 36,000  Level Gander Center
Tue 01:13:22 PM 55.7333 -71.1833 231° Southwest 470 541 36,000  Level Gander Center
Tue 01:14:22 PM 55.6333 -71.3333 220° Southwest 470 541 36,000  Level Gander Center
Tue 01:15:22 PM 55.5500 -71.5167 231° Southwest 470 541 36,000  Level Gander Center
Tue 01:16:22 PM 55.4500 -71.6833 223° Southwest 470 541 36,000  Level Gander Center
Tue 01:17:22 PM 55.3667 -71.8667 231° Southwest 470 541 36,000  Level Gander Center
Tue 01:18:22 PM 55.2833 -72.0167 226° Southwest 470 541 36,000  Level Gander Center
Tue 01:19:22 PM 55.2000 -72.1667 226° Southwest 470 541 36,000  Level Gander Center
Tue 01:20:22 PM 55.1000 -72.3500 226° Southwest 470 541 36,000  Level Gander Center
Tue 01:21:22 PM 55.0167 -72.5000 226° Southwest 470 541 36,000  Level Gander Center
Tue 01:22:22 PM 54.9167 -72.6500 221° Southwest 470 541 36,000  Level Gander Center
Tue 01:23:22 PM 54.8333 -72.8333 232° Southwest 470 541 36,000  Level Gander Center
Tue 01:24:22 PM 54.7333 -72.9833 221° Southwest 470 541 36,000  Level Gander Center
Tue 01:25:22 PM 54.6500 -73.1667 232° Southwest 470 541 36,000  Level Gander Center
Tue 01:26:22 PM 54.5500 -73.3000 218° Southwest 470 541 36,000  Level Gander Center
Tue 01:27:22 PM 54.4667 -73.4833 232° Southwest 460 529 36,000  Level Gander Center
Tue 01:28:22 PM 54.3667 -73.6333 221° Southwest 460 529 36,000  Level Gander Center
Tue 01:29:22 PM 54.2833 -73.7833 226° Southwest 460 529 36,000  Level Gander Center
Tue 01:30:22 PM 54.2000 -73.9333 227° Southwest 460 529 36,000  Level Gander Center
Tue 01:31:22 PM 54.1000 -74.0667 218° Southwest 450 518 36,000  Level Gander Center
Tue 01:32:22 PM 54.0167 -74.2500 232° Southwest 450 518 36,000  Level Gander Center
Tue 01:33:22 PM 53.9333 -74.4000 227° Southwest 450 518 36,000  Level Gander Center
Tue 01:34:22 PM 53.8333 -74.5333 218° Southwest 460 529 36,000  Level Gander Center
Tue 01:35:22 PM 53.7500 -74.6833 227° Southwest 460 529 36,000  Level Gander Center
Tue 01:36:22 PM 53.6667 -74.8167 223° Southwest 460 529 36,000  Level Gander Center
Tue 01:37:22 PM 53.5667 -74.9833 225° Southwest 460 529 36,000  Level Gander Center
Tue 01:38:22 PM 53.4500 -75.1333 217° Southwest 470 541 36,000  Level Gander Center
Tue 01:39:22 PM 53.3667 -75.3000 230° Southwest 460 529 36,000  Level Gander Center
Tue 01:40:22 PM 53.2833 -75.4333 224° Southwest 460 529 36,000  Level Gander Center
Tue 01:41:22 PM 53.1833 -75.5833 222° Southwest 460 529 36,000  Level Gander Center
Tue 01:42:22 PM 53.1000 -75.7167 224° Southwest 460 529 36,000  Level Gander Center
Tue 01:43:22 PM 53.0000 -75.8833 225° Southwest 460 529 36,000  Level Gander Center
Tue 01:44:22 PM 52.9167 -76.0167 224° Southwest 460 529 36,000  Level Gander Center
Tue 01:45:22 PM 52.8167 -76.1500 219° Southwest 470 541 36,000  Level Gander Center
Tue 01:46:22 PM 52.7167 -76.3167 225° Southwest 470 541 36,000  Level Gander Center
Tue 01:47:22 PM 52.6167 -76.4500 219° Southwest 470 541 36,000  Level Gander Center
Tue 01:48:22 PM 52.5333 -76.5833 224° Southwest 470 541 36,000  Level Gander Center
Tue 01:49:43 PM 52.4000 -76.7333 214° Southwest 460 529 36,000  Level Montreal Center
Tue 01:50:43 PM 52.3167 -76.8667 224° Southwest 460 529 36,000  Level Montreal Center
Tue 01:51:43 PM 52.2000 -77.0333 221° Southwest 460 529 36,000  Level Montreal Center
Tue 01:52:43 PM 52.1167 -77.1667 225° Southwest 460 529 36,000  Level Montreal Center
Tue 01:53:43 PM 52.0167 -77.3000 219° Southwest 460 529 36,000  Level Montreal Center
Tue 01:54:43 PM 51.9333 -77.4333 225° Southwest 460 529 36,000  Level Montreal Center
Tue 01:55:43 PM 51.8333 -77.6000 226° Southwest 450 518 36,000  Level Montreal Center
Tue 01:56:43 PM 51.7333 -77.7333 220° Southwest 450 518 36,000  Level Montreal Center
Tue 01:57:43 PM 51.6500 -77.8667 225° Southwest 450 518 36,000  Level Montreal Center
Tue 01:58:43 PM 51.5333 -78.0000 215° Southwest 450 518 36,000  Level Montreal Center
Tue 01:59:43 PM 51.4500 -78.1333 225° Southwest 440 506 36,000  Level Montreal Center
Tue 02:00:43 PM 51.3667 -78.2500 221° Southwest 450 518 36,000  Level Montreal Center
Tue 02:01:43 PM 51.2667 -78.3833 220° Southwest 450 518 36,000  Level Montreal Center
Tue 02:02:43 PM 51.1833 -78.5167 225° Southwest 460 529 36,000  Level Montreal Center
Tue 02:03:43 PM 51.0667 -78.6500 216° Southwest 450 518 36,000  Level Montreal Center
Tue 02:04:43 PM 50.9833 -78.7667 221° Southwest 440 506 36,000  Level Montreal Center
Tue 02:05:43 PM 50.8833 -78.9333 226° Southwest 460 529 36,000  Level Montreal Center
Tue 02:06:43 PM 50.8000 -79.0333 217° Southwest 450 518 36,000 100 Level Montreal Center
Tue 02:07:43 PM 50.7000 -79.1500 216° Southwest 450 518 36,200 500 Climbing Montreal Center
Tue 02:08:43 PM 50.6000 -79.3000 224° Southwest 450 518 37,000 800 Climbing Montreal Center
Tue 02:09:43 PM 50.5000 -79.4333 220° Southwest 460 529 37,800 500 Climbing Montreal Center
Tue 02:10:43 PM 50.4000 -79.5500 217° Southwest 450 518 38,000 99 Climbing Montreal Center
Tue 02:11:44 PM 50.3167 -79.6500 217° Southwest 470 541 38,000  Level Toronto Center
Tue 02:12:44 PM 50.2167 -79.7833 220° Southwest 460 529 38,000  Level Toronto Center
Tue 02:13:44 PM 50.1000 -79.8833 209° Southwest 470 541 38,000  Level Toronto Center
Tue 02:14:43 PM 49.9667 -80.0000 209° Southwest 470 541 38,000  Level Montreal Center
Tue 02:15:43 PM 49.8500 -80.0833 205° Southwest 470 541 38,000  Level Montreal Center
Tue 02:16:43 PM 49.7500 -80.1833 213° Southwest 470 541 38,000  Level Montreal Center
Tue 02:17:43 PM 49.6000 -80.2833 203° Southwest 470 541 38,000  Level Montreal Center
Tue 02:18:44 PM 49.5000 -80.3000 186° South 480 552 38,000  Level Toronto Center
Tue 02:19:43 PM 49.3667 -80.4167 210° Southwest 470 541 38,000  Level Montreal Center
Tue 02:20:43 PM 49.2333 -80.4500 189° South 480 552 38,000  Level Montreal Center
Tue 02:21:43 PM 49.1167 -80.4833 191° South 480 552 38,000  Level Montreal Center
Tue 02:22:44 PM 48.9667 -80.4667 176° South 490 564 38,000  Level Toronto Center
Tue 02:23:43 PM 48.8333 -80.5333 198° South 490 564 38,000  Level Montreal Center
Tue 02:24:43 PM 48.7000 -80.5833 194° South 480 552 38,000  Level Montreal Center
Tue 02:25:43 PM 48.6000 -80.7000 218° Southwest 460 529 38,000  Level Montreal Center
Tue 02:26:43 PM 48.5000 -80.8167 218° Southwest 460 529 38,000  Level Montreal Center
Tue 02:32:39 PM 47.9220 -81.5440 218° Southwest 465 535 38,000  Level FlightAware ADS-B
Tue 02:33:19 PM 47.8560 -81.6270 220° Southwest 466 536 38,000  Level FlightAware ADS-B
Tue 02:34:04 PM 47.7830 -81.7200 221° Southwest 466 536 38,000  Level FlightAware ADS-B
Tue 02:34:37 PM 47.7310 -81.7860 220° Southwest 466 536 38,000  Level FlightAware ADS-B
Tue 02:35:26 PM 47.6480 -81.8910 220° Southwest 468 539 38,000  Level FlightAware ADS-B
Tue 02:36:09 PM 47.5780 -81.9790 220° Southwest 467 537 38,000  Level FlightAware ADS-B
Tue 02:36:48 PM 47.5140 -82.0590 220° Southwest 466 536 38,000  Level FlightAware ADS-B
Tue 02:37:31 PM 47.4420 -82.1480 220° Southwest 464 534 38,000  Level FlightAware ADS-B
Tue 02:38:14 PM 47.3760 -82.2300 220° Southwest 464 534 38,000  Level FlightAware ADS-B
Tue 02:38:55 PM 47.3040 -82.3190 220° Southwest 464 534 38,000  Level FlightAware ADS-B
Tue 02:39:38 PM 47.2350 -82.4040 220° Southwest 465 535 38,000  Level FlightAware ADS-B
Tue 02:40:17 PM 47.1700 -82.4840 220° Southwest 464 534 38,000  Level FlightAware ADS-B
Tue 02:41:01 PM 47.0970 -82.5740 220° Southwest 464 534 38,000  Level FlightAware ADS-B
Tue 02:41:44 PM 47.0290 -82.6580 220° Southwest 465 535 38,000  Level FlightAware ADS-B
Tue 02:42:25 PM 46.9600 -82.7410 219° Southwest 465 535 38,000  Level FlightAware ADS-B
Tue 02:42:53 PM 46.9130 -82.7990 220° Southwest 466 536 38,000  Level FlightAware ADS-B
Tue 02:43:27 PM 46.8560 -82.8670 219° Southwest 467 537 38,000  Level FlightAware ADS-B
Tue 02:44:09 PM 46.7860 -82.9520 220° Southwest 467 537 38,000  Level FlightAware ADS-B
Tue 02:44:53 PM 46.7130 -83.0390 219° Southwest 468 539 38,000  Level FlightAware ADS-B
Tue 02:45:29 PM 46.6520 -83.1120 219° Southwest 469 540 38,000  Level FlightAware ADS-B
Tue 02:46:11 PM 46.5820 -83.1960 220° Southwest 470 541 38,000  Level FlightAware ADS-B
Tue 02:46:51 PM 46.5160 -83.2750 219° Southwest 471 542 38,000  Level FlightAware ADS-B
Tue 02:47:29 PM 46.4510 -83.3510 219° Southwest 471 542 38,000  Level FlightAware ADS-B
Tue 02:48:11 PM 46.3800 -83.4350 219° Southwest 471 542 38,000  Level FlightAware ADS-B
Tue 02:48:59 PM 46.2990 -83.5310 219° Southwest 472 543 38,000  Level FlightAware ADS-B
Tue 02:49:40 PM 46.2300 -83.6120 219° Southwest 472 543 38,000  Level FlightAware ADS-B
Tue 02:50:20 PM 46.1610 -83.6930 219° Southwest 472 543 38,000  Level FlightAware ADS-B
Tue 02:50:55 PM 46.1030 -83.7600 219° Southwest 474 545 38,000  Level FlightAware ADS-B
Tue 02:51:39 PM 46.0280 -83.8480 219° Southwest 474 545 38,000  Level FlightAware ADS-B
Tue 02:52:16 PM 45.9650 -83.9200 218° Southwest 473 544 38,000  Level FlightAware ADS-B
Tue 02:52:56 PM 45.8970 -83.9990 219° Southwest 472 543 38,000  Level FlightAware ADS-B
Tue 02:53:40 PM 45.8220 -84.0850 219° Southwest 473 544 38,000  Level FlightAware ADS-B
Tue 02:54:20 PM 45.7530 -84.1640 219° Southwest 471 542 38,000  Level FlightAware ADS-B
Tue 02:55:04 PM 45.6780 -84.2500 219° Southwest 471 542 38,000  Level FlightAware ADS-B
Tue 02:55:44 PM 45.6100 -84.3270 218° Southwest 471 542 38,000  Level FlightAware ADS-B
Tue 02:56:28 PM 45.5360 -84.4110 219° Southwest 470 541 38,000  Level FlightAware ADS-B
Tue 02:57:09 PM 45.4730 -84.4820 218° Southwest 470 541 38,000  Level FlightAware ADS-B
Tue 02:57:44 PM 45.4060 -84.5580 219° Southwest 469 540 38,000  Level FlightAware ADS-B
Tue 02:58:24 PM 45.3390 -84.6340 219° Southwest 469 540 38,000  Level FlightAware ADS-B
Tue 02:59:08 PM 45.2620 -84.7030 212° Southwest 470 541 38,000  Level FlightAware ADS-B
Tue 02:59:48 PM 45.1730 -84.7370 195° South 473 544 38,000  Level FlightAware ADS-B
Tue 03:00:32 PM 45.0810 -84.7670 193° South 473 544 38,000  Level FlightAware ADS-B
Tue 03:01:14 PM 44.9900 -84.7970 193° South 473 544 38,000  Level FlightAware ADS-B
Tue 03:01:54 PM 44.9050 -84.8250 193° South 473 544 38,000  Level FlightAware ADS-B
Tue 03:02:38 PM 44.8130 -84.8550 193° South 474 545 38,000 -71 Level FlightAware ADS-B
Tue 03:03:18 PM 44.7300 -84.8820 193° South 470 541 37,900 -495 Descending FlightAware ADS-B
Tue 03:04:15 PM 44.6070 -84.9220 193° South 453 521 37,200 -796 Descending FlightAware ADS-B
Tue 03:04:56 PM 44.5270 -84.9490 194° South 448 516 36,600 -574 Descending FlightAware ADS-B
Tue 03:06:10 PM 44.3910 -84.9900 192° South 446 513 36,100 -789 Descending FlightAware ADS-B
Tue 03:06:50 PM 44.3080 -85.0180 194° South 445 512 35,100 -789 Descending FlightAware ADS-B
Tue 03:07:26 PM 44.2460 -85.0360 192° South 445 512 35,100 -847 Level FlightAware ADS-B
Tue 03:08:15 PM 44.1330 -85.0750 194° South 455 524 33,900 -847 Descending FlightAware ADS-B
Tue 03:08:51 PM 44.0700 -85.0930 192° South 455 524 33,900  Level FlightAware ADS-B
Tue 03:09:54 PM 43.9600 -85.1260 192° South 455 524 33,900  Level FlightAware ADS-B
Tue 03:10:16 PM 43.9210 -85.1370 191° South 455 524 33,900  Level FlightAware ADS-B
Tue 03:11:40 PM 43.7740 -85.1800 192° South 455 524 33,900 -814 Level FlightAware ADS-B
Tue 03:12:36 PM 43.5750 -85.2530 195° South 467 537 32,000 -1,129 Descending FlightAware ADS-B
Tue 03:13:21 PM 43.4900 -85.2780 192° South 467 537 32,000 -900 Level FlightAware ADS-B
Tue 03:13:56 PM 43.4030 -85.3060 193° South 470 541 30,800 -1,833 Descending FlightAware ADS-B
Tue 03:14:33 PM 43.3290 -85.3300 193° South 464 534 29,800 -1,462 Descending FlightAware ADS-B
Tue 03:15:14 PM 43.2430 -85.3560 192° South 443 510 28,900 -1,213 Descending FlightAware ADS-B
Tue 03:16:02 PM 43.1470 -85.3860 193° South 435 501 28,000 -628 Descending FlightAware ADS-B
Tue 03:16:40 PM 43.0840 -85.4050 192° South 435 501 28,000  Level FlightAware ADS-B
Tue 03:17:28 PM 43.0040 -85.4280 192° South 435 501 28,000 -1,071 Level FlightAware ADS-B
Tue 03:18:04 PM 42.9500 -85.5510 239° Southwest 432 497 26,500 -1,792 Descending FlightAware ADS-B
Tue 03:18:45 PM 42.9110 -85.6440 240° Southwest 440 506 25,700 -1,275 Descending FlightAware ADS-B
Tue 03:19:24 PM 42.8700 -85.7440 241° Southwest 437 503 24,800 -1,367 Descending FlightAware ADS-B
Tue 03:20:04 PM 42.8310 -85.8360 240° Southwest 429 494 23,900 -684 Descending FlightAware ADS-B
Tue 03:20:43 PM 42.7980 -85.9140 240° Southwest 429 494 23,900 -1,259 Level FlightAware ADS-B
Tue 03:21:25 PM 42.7510 -86.0230 240° Southwest 423 487 22,200 -1,829 Descending FlightAware ADS-B
Tue 03:22:05 PM 42.7120 -86.1150 240° Southwest 418 481 21,400 -791 Descending FlightAware ADS-B
Tue 03:22:56 PM 42.6670 -86.2190 240° Southwest 417 480 21,000 -832 Descending FlightAware ADS-B
Tue 03:23:46 PM 42.6320 -86.3470 250° West 399 459 20,000 -594 Descending FlightAware ADS-B
Tue 03:24:37 PM 42.6090 -86.4710 256° West 405 466 20,000 -228 Level FlightAware ADS-B
Tue 03:25:05 PM 42.5950 -86.5410 255° West 401 461 19,700 -1,167 Descending FlightAware ADS-B
Tue 03:25:49 PM 42.5750 -86.6480 256° West 380 437 18,600 -1,674 Descending FlightAware ADS-B
Tue 03:26:31 PM 42.5550 -86.7430 254° West 373 429 17,300 -1,829 Descending FlightAware ADS-B
Tue 03:27:11 PM 42.5320 -86.8290 250° West 366 421 16,100 -1,929 Descending FlightAware ADS-B
Tue 03:27:55 PM 42.5070 -86.9220 250° West 362 417 14,600 -2,045 Descending FlightAware ADS-B
Tue 03:28:39 PM 42.4820 -87.0140 250° West 352 405 13,100 -1,926 Descending FlightAware ADS-B
Tue 03:29:16 PM 42.4610 -87.0890 249° West 341 392 12,000 -1,553 Descending FlightAware ADS-B
Tue 03:30:04 PM 42.4370 -87.1790 250° West 299 344 10,900 -1,586 Descending FlightAware ADS-B
Tue 03:30:43 PM 42.4190 -87.2440 249° West 286 329 9,700 -1,765 Descending FlightAware ADS-B
Tue 03:31:12 PM 42.4050 -87.2910 248° West 283 326 8,900 -1,053 Descending FlightAware ADS-B
Tue 03:31:40 PM 42.3890 -87.3340 243° Southwest 279 321 8,700 -419 Descending FlightAware ADS-B
Tue 03:31:55 PM 42.3720 -87.3510 216° Southwest 278 320 8,600 -774 Descending FlightAware ADS-B
Tue 03:32:11 PM 42.3520 -87.3570 193° South 278 320 8,300 -1,393 Descending FlightAware ADS-B
Tue 03:32:51 PM 42.3000 -87.3510 175° South 282 325 7,300 -1,385 Descending FlightAware ADS-B
Tue 03:33:03 PM 42.2840 -87.3490 175° South 280 322 7,100 -1,171 Descending FlightAware ADS-B
Tue 03:33:32 PM 42.2480 -87.3440 174° South 277 319 6,500 -1,345 Descending FlightAware ADS-B
Tue 03:34:01 PM 42.2120 -87.3380 173° South 277 319 5,800 -1,171 Descending FlightAware ADS-B
Tue 03:34:13 PM 42.1950 -87.3360 175° South 279 321 5,700 -150 Descending FlightAware ADS-B
Tue 03:34:41 PM 42.1590 -87.3320 175° South 276 318 5,700  Level FlightAware ADS-B
Tue 03:34:57 PM 42.1390 -87.3290 174° South 275 316 5,700  Level FlightAware ADS-B
Tue 03:35:25 PM 42.1030 -87.3240 174° South 277 319 5,700  Level FlightAware ADS-B
Tue 03:35:53 PM 42.0670 -87.3200 175° South 270 311 5,700  Level FlightAware ADS-B
Tue 03:36:19 PM 42.0380 -87.3160 174° South 244 281 5,700 -182 Level FlightAware ADS-B
Tue 03:36:59 PM 42.0000 -87.3330 198° South 220 253 5,500 -750 Descending FlightAware ADS-B
Tue 03:37:31 PM 41.9860 -87.3730 245° Southwest 219 252 4,800 -900 Descending FlightAware ADS-B
Tue 03:37:59 PM 41.9750 -87.4090 248° West 217 250 4,600 -103 Descending FlightAware ADS-B
Tue 03:38:29 PM 41.9680 -87.4490 257° West 220 253 4,700 111 Climbing FlightAware ADS-B
Tue 03:38:53 PM 41.9690 -87.4770 273° West 222 255 4,700  Level FlightAware ADS-B
Tue 03:39:30 PM 41.9690 -87.5280 270° West 217 250 4,700  Level FlightAware ADS-B
Tue 03:39:59 PM 41.9690 -87.5660 270° West 190 219 4,700 -120 Level FlightAware ADS-B
Tue 03:40:20 PM 41.9690 -87.5910 270° West 185 213 4,600 -769 Descending FlightAware ADS-B
Tue 03:40:38 PM 41.9690 -87.6120 270° West 187 215 4,200 -1,119 Descending FlightAware ADS-B
Tue 03:41:19 PM 41.9690 -87.6580 270° West 190 219 3,500 -1,031 Descending FlightAware ADS-B
Tue 03:41:42 PM 41.9690 -87.6850 270° West 192 221 3,100 -1,038 Descending FlightAware ADS-B
Tue 03:42:11 PM 41.9690 -87.7220 270° West 191 220 2,600 -982 Descending FlightAware ADS-B
Tue 03:42:37 PM 41.9690 -87.7520 270° West 189 217 2,200 -923 Descending FlightAware ADS-B
Tue 03:43:03 PM 41.9690 -87.7800 270° West 178 205 1,800 -880 Descending FlightAware ADS-B
Tue 03:43:52 PM 41.9690 -87.8290 270° West 146 168 1,100 -844 Descending FlightAware ADS-B
Tue 03:44:07 PM 41.9690 -87.8430 270° West 146 168 900 -732 Descending FlightAware ADS-B
Tue 03:44:33 PM 41.9690 -87.8670 270° West 145 167 600 -692 Descending FlightAware ADS-B

Login

Don't have an account? Register now (free) for customized features, flight alerts, and more!